createdAt,value
2017-09-17T00:00:43.974Z,11.20
2017-09-17T00:03:11.366Z,10.17
2017-09-17T00:05:38.766Z,10.90
2017-09-17T00:08:06.171Z,10.53
2017-09-17T00:10:33.582Z,10.80
2017-09-17T00:13:00.983Z,11.10
2017-09-17T00:15:28.386Z,10.90
2017-09-17T00:17:55.787Z,10.50
2017-09-17T00:20:23.295Z,11.70
2017-09-17T00:22:50.703Z,11.43
2017-09-17T00:25:18.142Z,11.47
2017-09-17T00:27:45.543Z,11.20
2017-09-17T00:30:12.949Z,11.40
2017-09-17T00:32:40.339Z,10.10
2017-09-17T00:35:07.738Z,11.50
2017-09-17T00:37:35.145Z,11.60
2017-09-17T00:40:02.548Z,11.70
2017-09-17T00:42:29.952Z,11.20
2017-09-17T00:44:57.379Z,11.20
2017-09-17T00:47:24.762Z,11.47
2017-09-17T00:49:52.163Z,11.07
2017-09-17T00:52:19.559Z,10.60
2017-09-17T00:54:46.962Z,10.97
2017-09-17T00:57:14.384Z,9.83
2017-09-17T00:59:41.798Z,11.90
2017-09-17T01:02:09.199Z,11.13
2017-09-17T01:04:36.607Z,11.17
2017-09-17T01:07:04.016Z,11.73
2017-09-17T01:09:31.414Z,11.17
2017-09-17T01:11:58.832Z,11.40
2017-09-17T01:14:26.250Z,11.00
2017-09-17T01:16:53.657Z,11.10
2017-09-17T01:19:21.051Z,10.70
2017-09-17T01:21:48.647Z,10.30
2017-09-17T01:24:16.059Z,11.27
2017-09-17T01:26:43.458Z,11.73
2017-09-17T01:29:10.866Z,11.30
2017-09-17T01:31:38.288Z,12.80
2017-09-17T01:34:05.714Z,10.53
2017-09-17T01:36:33.115Z,10.87
2017-09-17T01:39:00.531Z,10.87
2017-09-17T01:41:27.924Z,12.53
2017-09-17T01:43:55.310Z,10.03
2017-09-17T01:46:22.713Z,10.67
2017-09-17T01:48:50.099Z,9.87
2017-09-17T01:51:17.518Z,10.30
2017-09-17T01:53:44.919Z,10.70
2017-09-17T01:56:12.319Z,10.90
2017-09-17T01:58:39.723Z,10.53
2017-09-17T02:01:07.119Z,10.00
2017-09-17T02:03:34.524Z,10.60
2017-09-17T02:06:01.923Z,10.37
2017-09-17T02:08:29.364Z,10.50
2017-09-17T02:10:56.794Z,11.40
2017-09-17T02:13:24.221Z,10.70
2017-09-17T02:15:51.619Z,11.20
2017-09-17T02:18:19.010Z,10.10
2017-09-17T02:20:46.412Z,10.60
2017-09-17T02:23:13.806Z,10.10
2017-09-17T02:25:41.214Z,9.83
2017-09-17T02:28:08.603Z,10.40
2017-09-17T02:30:35.999Z,10.60
2017-09-17T02:33:03.387Z,11.20
2017-09-17T02:35:30.795Z,10.63
2017-09-17T02:37:58.187Z,11.10
2017-09-17T02:40:25.588Z,10.87
2017-09-17T02:42:52.987Z,11.07
2017-09-17T02:45:20.375Z,10.07
2017-09-17T02:47:47.796Z,10.63
2017-09-17T02:50:15.187Z,10.90
2017-09-17T02:52:42.589Z,11.00
2017-09-17T02:55:09.981Z,11.70
2017-09-17T02:57:37.478Z,10.57
2017-09-17T03:00:04.879Z,10.97
2017-09-17T03:02:32.274Z,10.80
2017-09-17T03:04:59.724Z,10.87
2017-09-17T03:07:27.095Z,10.00
2017-09-17T03:09:54.502Z,10.63
2017-09-17T03:12:21.890Z,10.57
2017-09-17T03:14:49.290Z,10.80
2017-09-17T03:17:16.683Z,11.17
2017-09-17T03:19:44.104Z,10.93
2017-09-17T03:22:11.507Z,10.10
2017-09-17T03:24:38.924Z,11.50
2017-09-17T03:27:06.340Z,11.77
2017-09-17T03:29:33.744Z,11.37
2017-09-17T03:32:01.154Z,11.10
2017-09-17T03:34:28.554Z,11.50
2017-09-17T03:36:55.959Z,10.30
2017-09-17T03:39:23.366Z,10.37
2017-09-17T03:41:50.783Z,10.43
2017-09-17T03:44:18.200Z,10.70
2017-09-17T03:46:45.595Z,10.53
2017-09-17T03:49:12.993Z,10.63
2017-09-17T03:51:40.394Z,10.70
2017-09-17T03:54:07.938Z,10.53
2017-09-17T03:56:35.347Z,10.73
2017-09-17T03:59:02.755Z,11.00
2017-09-17T04:01:30.151Z,10.50
2017-09-17T04:03:57.555Z,10.77
2017-09-17T04:06:24.952Z,10.33
2017-09-17T04:08:52.338Z,10.63
2017-09-17T04:11:19.748Z,10.43
2017-09-17T04:13:47.122Z,9.50
2017-09-17T04:16:14.592Z,10.67
2017-09-17T04:18:41.981Z,10.60
2017-09-17T04:21:09.391Z,10.00
2017-09-17T04:23:36.791Z,11.17
2017-09-17T04:26:04.182Z,10.20
2017-09-17T04:28:31.579Z,10.07
2017-09-17T04:30:58.977Z,10.53
2017-09-17T04:33:26.770Z,10.70
2017-09-17T04:35:54.165Z,10.23
2017-09-17T04:38:21.550Z,9.87
2017-09-17T04:40:48.967Z,9.30
2017-09-17T04:43:16.356Z,9.43
2017-09-17T04:45:43.759Z,9.73
2017-09-17T04:48:11.151Z,9.30
2017-09-17T04:50:38.695Z,9.27
2017-09-17T04:53:06.107Z,10.13
2017-09-17T04:55:33.508Z,9.83
2017-09-17T04:58:00.902Z,9.50
2017-09-17T05:00:28.315Z,10.40
2017-09-17T05:02:55.711Z,10.40
2017-09-17T05:05:23.129Z,10.40
2017-09-17T05:07:50.518Z,10.03
2017-09-17T05:10:17.921Z,10.00
2017-09-17T05:12:45.311Z,10.37
2017-09-17T05:15:12.710Z,10.97
2017-09-17T05:17:40.827Z,10.90
2017-09-17T05:20:08.771Z,10.70
2017-09-17T05:22:36.167Z,10.93
2017-09-17T05:25:03.594Z,10.73
2017-09-17T05:27:31.042Z,10.67
2017-09-17T05:29:58.527Z,10.40
2017-09-17T05:32:25.959Z,10.77
2017-09-17T05:34:53.352Z,10.10
2017-09-17T05:37:21.687Z,9.40
2017-09-17T05:39:49.074Z,10.87
2017-09-17T05:42:16.466Z,10.17
2017-09-17T05:44:43.859Z,10.00
2017-09-17T05:47:11.299Z,10.10
2017-09-17T05:49:38.683Z,9.83
2017-09-17T05:52:06.080Z,9.17
2017-09-17T05:54:33.498Z,9.57
2017-09-17T05:57:00.903Z,9.60
2017-09-17T05:59:28.310Z,9.40
2017-09-17T06:01:55.723Z,8.67
2017-09-17T06:04:23.152Z,8.03
2017-09-17T06:06:50.527Z,8.27
2017-09-17T06:09:18.424Z,8.30
2017-09-17T06:11:45.807Z,8.80
2017-09-17T06:14:13.202Z,8.43
2017-09-17T06:16:40.630Z,8.77
2017-09-17T06:19:08.036Z,9.03
2017-09-17T06:21:35.439Z,9.00
2017-09-17T06:24:02.842Z,8.60
2017-09-17T06:26:30.231Z,8.30
2017-09-17T06:28:57.637Z,8.83
2017-09-17T06:31:25.075Z,8.40
2017-09-17T06:33:52.467Z,7.23
2017-09-17T06:36:19.866Z,8.47
2017-09-17T06:38:47.284Z,7.80
2017-09-17T06:41:14.682Z,8.07
2017-09-17T06:43:42.065Z,7.80
2017-09-17T06:46:09.458Z,8.50
2017-09-17T06:48:36.855Z,9.40
2017-09-17T06:51:04.266Z,7.60
2017-09-17T06:53:31.763Z,11.20
2017-09-17T06:55:59.163Z,7.77
2017-09-17T06:58:26.787Z,8.33
2017-09-17T07:00:54.187Z,7.90
2017-09-17T07:03:21.563Z,8.07
2017-09-17T07:05:49.034Z,8.17
2017-09-17T07:08:16.410Z,8.27
2017-09-17T07:10:43.811Z,7.97
2017-09-17T07:13:11.195Z,8.30
2017-09-17T07:15:38.609Z,8.70
2017-09-17T07:18:05.999Z,8.37
2017-09-17T07:20:33.386Z,8.17
2017-09-17T07:23:00.793Z,8.30
2017-09-17T07:25:28.198Z,8.60
2017-09-17T07:27:55.599Z,8.50
2017-09-17T07:30:22.998Z,8.40
2017-09-17T07:32:50.394Z,7.93
2017-09-17T07:35:17.804Z,7.53
2017-09-17T07:37:45.222Z,8.07
2017-09-17T07:40:12.607Z,7.80
2017-09-17T07:42:39.999Z,8.30
2017-09-17T07:45:07.399Z,7.93
2017-09-17T07:47:34.798Z,9.27
2017-09-17T07:50:02.247Z,8.20
2017-09-17T07:52:29.631Z,8.20
2017-09-17T07:54:57.039Z,8.77
2017-09-17T07:57:24.431Z,7.63
2017-09-17T07:59:52.235Z,9.30
2017-09-17T08:02:19.627Z,8.37
2017-09-17T08:04:47.081Z,8.63
2017-09-17T08:07:14.470Z,9.03
2017-09-17T08:09:41.897Z,9.20
2017-09-17T08:12:09.339Z,9.47
2017-09-17T08:14:36.731Z,9.80
2017-09-17T08:17:04.172Z,9.00
2017-09-17T08:19:31.564Z,8.03
2017-09-17T08:21:59.148Z,8.33
2017-09-17T08:24:26.536Z,8.43
2017-09-17T08:26:53.943Z,8.23
2017-09-17T08:29:21.350Z,7.97
2017-09-17T08:31:48.760Z,7.50
2017-09-17T08:34:16.168Z,7.00
2017-09-17T08:36:43.558Z,7.40
2017-09-17T08:39:10.955Z,7.90
2017-09-17T08:41:38.347Z,8.37
2017-09-17T08:44:05.899Z,7.13
2017-09-17T08:46:33.321Z,6.93
2017-09-17T08:49:00.711Z,7.03
2017-09-17T08:51:28.315Z,7.20
2017-09-17T08:53:56.695Z,7.17
2017-09-17T08:56:24.086Z,6.53
2017-09-17T08:58:51.483Z,7.10
2017-09-17T09:01:18.896Z,6.77
2017-09-17T09:03:46.269Z,7.10
2017-09-17T09:06:13.674Z,7.70
2017-09-17T09:08:41.079Z,7.63
2017-09-17T09:11:08.468Z,7.77
2017-09-17T09:13:35.859Z,7.40
2017-09-17T09:16:03.285Z,7.97
2017-09-17T09:18:30.647Z,7.23
2017-09-17T09:20:58.042Z,6.87
2017-09-17T09:23:25.472Z,7.40
2017-09-17T09:25:52.867Z,6.93
2017-09-17T09:28:20.279Z,7.20
2017-09-17T09:30:47.672Z,7.63
2017-09-17T09:33:15.091Z,8.20
2017-09-17T09:35:42.478Z,6.90
2017-09-17T09:38:10.471Z,6.70
2017-09-17T09:40:37.866Z,6.67
2017-09-17T09:43:05.267Z,7.07
2017-09-17T09:45:32.666Z,7.10
2017-09-17T09:48:00.054Z,7.83
2017-09-17T09:50:27.468Z,7.40
2017-09-17T09:52:54.855Z,7.00
2017-09-17T09:55:22.243Z,7.40
2017-09-17T09:57:49.657Z,7.93
2017-09-17T10:00:17.036Z,7.83
2017-09-17T10:02:44.432Z,7.43
2017-09-17T10:05:11.814Z,7.50
2017-09-17T10:07:42.439Z,8.00
2017-09-17T10:10:09.830Z,8.50
2017-09-17T10:12:37.374Z,7.43
2017-09-17T10:15:04.768Z,7.43
2017-09-17T10:17:32.159Z,7.50
2017-09-17T10:19:59.563Z,8.10
2017-09-17T10:22:26.951Z,7.40
2017-09-17T10:24:54.347Z,7.40
2017-09-17T10:27:21.732Z,7.87
2017-09-17T10:29:49.126Z,7.67
2017-09-17T10:32:16.517Z,8.17
2017-09-17T10:34:43.904Z,7.67
2017-09-17T10:37:11.296Z,7.07
2017-09-17T10:39:38.686Z,9.57
2017-09-17T10:42:06.083Z,7.50
2017-09-17T10:44:33.470Z,7.70
2017-09-17T10:47:01.303Z,7.80
2017-09-17T10:49:28.700Z,7.80
2017-09-17T10:51:56.098Z,7.87
2017-09-17T10:54:23.504Z,7.97
2017-09-17T10:56:50.896Z,8.13
2017-09-17T10:59:18.286Z,7.20
2017-09-17T11:01:45.671Z,6.87
2017-09-17T11:04:13.088Z,7.70
2017-09-17T11:06:40.474Z,7.40
2017-09-17T11:09:07.870Z,7.80
2017-09-17T11:11:35.259Z,7.17
2017-09-17T11:14:02.646Z,7.70
2017-09-17T11:16:30.039Z,7.87
2017-09-17T11:18:57.428Z,8.13
2017-09-17T11:21:24.814Z,8.37
2017-09-17T11:23:52.204Z,8.30
2017-09-17T11:26:19.600Z,8.00
2017-09-17T11:28:48.941Z,8.37
2017-09-17T11:31:16.356Z,8.03
2017-09-17T11:33:43.759Z,7.60
2017-09-17T11:36:11.148Z,8.33
2017-09-17T11:38:38.552Z,7.80
2017-09-17T11:41:07.202Z,7.50
2017-09-17T11:43:34.634Z,6.80
2017-09-17T11:46:02.033Z,7.13
2017-09-17T11:48:29.424Z,7.10
2017-09-17T11:50:56.814Z,6.77
2017-09-17T11:53:24.310Z,7.10
2017-09-17T11:55:51.704Z,6.57
2017-09-17T11:58:19.094Z,7.00
2017-09-17T12:00:46.492Z,7.23
2017-09-17T12:03:13.930Z,6.40
2017-09-17T12:05:41.331Z,6.40
2017-09-17T12:08:08.720Z,7.20
2017-09-17T12:10:36.155Z,7.70
2017-09-17T12:13:03.548Z,7.40
2017-09-17T12:15:30.943Z,6.90
2017-09-17T12:17:58.331Z,6.80
2017-09-17T12:20:25.735Z,8.40
2017-09-17T12:22:53.120Z,8.57
2017-09-17T12:25:20.803Z,7.00
2017-09-17T12:27:48.186Z,7.77
2017-09-17T12:30:15.586Z,7.40
2017-09-17T12:32:42.984Z,7.07
2017-09-17T12:35:10.379Z,7.13
2017-09-17T12:37:37.783Z,7.53
2017-09-17T12:40:05.177Z,7.87
2017-09-17T12:42:32.579Z,7.80
2017-09-17T12:44:59.974Z,7.33
2017-09-17T12:47:27.371Z,8.00
2017-09-17T12:49:54.762Z,9.10
2017-09-17T12:52:22.163Z,7.73
2017-09-17T12:54:49.552Z,7.40
2017-09-17T12:57:16.950Z,6.73
2017-09-17T12:59:44.338Z,8.30
2017-09-17T13:02:11.835Z,8.20
2017-09-17T13:04:39.226Z,6.90
2017-09-17T13:07:06.619Z,8.93
2017-09-17T13:09:34.006Z,8.23
2017-09-17T13:12:01.392Z,7.63
2017-09-17T13:14:28.826Z,8.67
2017-09-17T13:16:56.215Z,7.63
2017-09-17T13:19:24.187Z,7.40
2017-09-17T13:21:51.578Z,8.57
2017-09-17T13:24:19.022Z,7.60
2017-09-17T13:26:46.395Z,8.80
2017-09-17T13:29:13.791Z,8.00
2017-09-17T13:31:42.362Z,7.57
2017-09-17T13:34:09.760Z,8.30
2017-09-17T13:36:37.156Z,7.90
2017-09-17T13:39:04.539Z,8.10
2017-09-17T13:41:31.940Z,8.60
2017-09-17T13:43:59.322Z,7.87
2017-09-17T13:46:26.740Z,7.50
2017-09-17T13:48:54.123Z,8.20
2017-09-17T13:51:21.517Z,8.07
2017-09-17T13:53:48.912Z,8.40
2017-09-17T13:56:16.296Z,8.23
2017-09-17T13:58:43.687Z,7.90
2017-09-17T14:01:13.463Z,8.50
2017-09-17T14:03:40.856Z,7.37
2017-09-17T14:06:08.243Z,8.13
2017-09-17T14:08:46.347Z,7.67
2017-09-17T14:11:14.087Z,8.20
2017-09-17T14:13:41.470Z,7.90
2017-09-17T14:16:08.865Z,8.70
2017-09-17T14:18:36.259Z,7.60
2017-09-17T14:21:03.670Z,7.97
2017-09-17T14:23:31.061Z,8.97
2017-09-17T14:25:58.456Z,7.37
2017-09-17T14:28:25.851Z,9.00
2017-09-17T14:30:53.235Z,7.30
2017-09-17T14:33:20.638Z,8.00
2017-09-17T14:35:48.018Z,7.33
2017-09-17T14:38:15.414Z,7.20
2017-09-17T14:40:42.811Z,6.93
2017-09-17T14:43:10.219Z,7.83
2017-09-17T14:45:37.614Z,7.70
2017-09-17T14:48:05.027Z,7.13
2017-09-17T14:50:32.415Z,6.40
2017-09-17T14:52:59.804Z,7.40
2017-09-17T14:55:27.202Z,6.83
2017-09-17T14:57:54.811Z,6.60
2017-09-17T15:00:22.230Z,6.40
2017-09-17T15:02:49.649Z,6.77
2017-09-17T15:05:17.046Z,7.73
2017-09-17T15:07:45.286Z,7.10
2017-09-17T15:10:13.054Z,8.20
2017-09-17T15:12:40.427Z,6.70
2017-09-17T15:15:07.820Z,7.33
2017-09-17T15:17:35.212Z,6.20
2017-09-17T15:20:02.598Z,7.43
2017-09-17T15:22:30.006Z,7.40
2017-09-17T15:24:57.398Z,6.97
2017-09-17T15:27:24.799Z,7.10
2017-09-17T15:29:52.190Z,7.63
2017-09-17T15:32:19.610Z,7.20
2017-09-17T15:34:47.015Z,6.90
2017-09-17T15:37:14.425Z,7.13
2017-09-17T15:39:41.808Z,6.80
2017-09-17T15:42:09.200Z,6.53
2017-09-17T15:44:36.599Z,6.97
2017-09-17T15:47:03.992Z,7.10
2017-09-17T15:49:31.416Z,7.07
2017-09-17T15:51:58.823Z,7.50
2017-09-17T15:54:26.371Z,7.37
2017-09-17T15:56:53.767Z,6.80
2017-09-17T15:59:21.163Z,7.00
2017-09-17T16:01:48.558Z,6.70
2017-09-17T16:04:15.956Z,7.33
2017-09-17T16:06:43.355Z,7.20
2017-09-17T16:09:10.749Z,7.97
2017-09-17T16:11:38.154Z,8.23
2017-09-17T16:14:05.554Z,10.43
2017-09-17T16:16:32.961Z,9.43
2017-09-17T16:19:00.360Z,10.03
2017-09-17T16:21:27.776Z,9.00
2017-09-17T16:23:55.160Z,8.37
2017-09-17T16:26:22.537Z,8.40
2017-09-17T16:28:50.354Z,8.23
2017-09-17T16:31:17.742Z,8.17
2017-09-17T16:33:45.131Z,7.40
2017-09-17T16:36:12.528Z,7.30
2017-09-17T16:38:39.915Z,7.80
2017-09-17T16:41:07.310Z,7.80
2017-09-17T16:43:34.696Z,7.50
2017-09-17T16:46:02.098Z,7.83
2017-09-17T16:48:29.560Z,8.70
2017-09-17T16:50:57.370Z,7.60
2017-09-17T16:53:24.759Z,6.50
2017-09-17T16:55:52.142Z,6.60
2017-09-17T16:58:19.547Z,6.90
2017-09-17T17:00:46.930Z,7.03
2017-09-17T17:03:14.327Z,7.07
2017-09-17T17:05:41.715Z,6.57
2017-09-17T17:08:09.115Z,7.20
2017-09-17T17:10:36.502Z,6.77
2017-09-17T17:13:03.899Z,7.00
2017-09-17T17:15:31.280Z,6.50
2017-09-17T17:17:58.670Z,6.90
2017-09-17T17:20:26.067Z,7.30
2017-09-17T17:22:53.454Z,7.10
2017-09-17T17:25:20.847Z,7.70
2017-09-17T17:27:48.235Z,7.90
2017-09-17T17:30:15.646Z,7.23
2017-09-17T17:32:43.030Z,6.10
2017-09-17T17:35:10.423Z,7.13
2017-09-17T17:37:37.820Z,6.57
2017-09-17T17:40:05.211Z,7.23
2017-09-17T17:42:32.606Z,7.70
2017-09-17T17:45:00.007Z,7.73
2017-09-17T17:47:27.424Z,7.63
2017-09-17T17:49:54.810Z,7.27
2017-09-17T17:52:22.207Z,7.83
2017-09-17T17:54:49.604Z,6.97
2017-09-17T17:57:16.992Z,7.30
2017-09-17T17:59:44.395Z,6.70
2017-09-17T18:02:11.847Z,8.43
2017-09-17T18:04:39.292Z,7.30
2017-09-17T18:07:06.685Z,7.20
2017-09-17T18:09:34.083Z,8.30
2017-09-17T18:12:01.479Z,8.60
2017-09-17T18:14:29.080Z,8.53
2017-09-17T18:16:56.495Z,9.90
2017-09-17T18:19:23.887Z,10.90
2017-09-17T18:21:51.292Z,9.60
2017-09-17T18:24:18.784Z,9.30
2017-09-17T18:26:47.148Z,9.20
2017-09-17T18:29:14.548Z,9.33
2017-09-17T18:31:41.956Z,11.60
2017-09-17T18:34:09.352Z,10.90
2017-09-17T18:36:36.787Z,11.97
2017-09-17T18:39:04.223Z,11.90
2017-09-17T18:41:31.612Z,9.60
2017-09-17T18:43:59.015Z,9.47
2017-09-17T18:46:26.411Z,8.17
2017-09-17T18:48:53.876Z,8.20
2017-09-17T18:51:21.264Z,9.00
2017-09-17T18:53:48.706Z,8.07
2017-09-17T18:56:16.121Z,8.60
2017-09-17T18:58:43.535Z,9.03
2017-09-17T19:01:10.934Z,9.70
2017-09-17T19:03:38.345Z,10.00
2017-09-17T19:06:05.719Z,10.43
2017-09-17T19:08:33.116Z,9.53
2017-09-17T19:11:00.663Z,10.40
2017-09-17T19:13:28.083Z,10.37
2017-09-17T19:15:55.476Z,8.73
2017-09-17T19:18:22.872Z,8.67
2017-09-17T19:20:50.264Z,8.83
2017-09-17T19:23:17.650Z,8.50
2017-09-17T19:25:45.051Z,8.87
2017-09-17T19:28:12.442Z,8.60
2017-09-17T19:30:39.841Z,8.20
2017-09-17T19:33:07.379Z,8.40
2017-09-17T19:35:34.765Z,7.77
2017-09-17T19:38:02.154Z,7.93
2017-09-17T19:40:29.550Z,8.67
2017-09-17T19:42:56.944Z,8.57
2017-09-17T19:45:24.336Z,9.40
2017-09-17T19:47:51.718Z,7.90
2017-09-17T19:50:19.116Z,8.97
2017-09-17T19:52:46.504Z,7.90
2017-09-17T19:55:14.059Z,8.10
2017-09-17T19:57:41.454Z,8.33
2017-09-17T20:00:08.855Z,8.37
2017-09-17T20:02:36.243Z,9.13
2017-09-17T20:05:03.637Z,8.33
2017-09-17T20:07:31.039Z,8.40
2017-09-17T20:09:58.428Z,8.60
2017-09-17T20:12:25.971Z,7.97
2017-09-17T20:14:53.359Z,8.50
2017-09-17T20:17:20.751Z,8.67
2017-09-17T20:19:48.145Z,8.60
2017-09-17T20:22:15.529Z,8.20
2017-09-17T20:24:42.931Z,8.50
2017-09-17T20:27:10.315Z,8.60
2017-09-17T20:29:37.739Z,9.40
2017-09-17T20:32:05.122Z,9.37
2017-09-17T20:34:32.511Z,7.73
2017-09-17T20:36:59.907Z,8.30
2017-09-17T20:39:27.298Z,8.50
2017-09-17T20:41:55.660Z,8.70
2017-09-17T20:44:23.047Z,8.70
2017-09-17T20:46:50.474Z,8.80
2017-09-17T20:49:17.863Z,8.33
2017-09-17T20:51:45.252Z,9.10
2017-09-17T20:54:12.643Z,8.00
2017-09-17T20:56:40.027Z,8.07
2017-09-17T20:59:07.431Z,10.00
2017-09-17T21:01:34.827Z,10.13
2017-09-17T21:04:02.382Z,10.70
2017-09-17T21:06:29.768Z,9.93
2017-09-17T21:08:57.167Z,10.57
2017-09-17T21:11:24.571Z,9.70
2017-09-17T21:13:51.966Z,11.00
2017-09-17T21:16:19.371Z,10.47
2017-09-17T21:18:46.766Z,11.20
2017-09-17T21:21:14.322Z,11.27
2017-09-17T21:23:41.723Z,11.90
2017-09-17T21:26:09.119Z,11.30
2017-09-17T21:28:36.524Z,10.40
2017-09-17T21:31:03.919Z,10.77
2017-09-17T21:33:31.322Z,10.43
2017-09-17T21:35:58.722Z,10.97
2017-09-17T21:38:26.114Z,10.37
2017-09-17T21:40:53.515Z,10.60
2017-09-17T21:43:20.918Z,11.13
2017-09-17T21:45:48.335Z,11.20
2017-09-17T21:48:15.731Z,10.73
2017-09-17T21:50:43.143Z,10.60
2017-09-17T21:53:10.542Z,11.57
2017-09-17T21:55:37.951Z,10.80
2017-09-17T21:58:05.342Z,11.17
2017-09-17T22:00:32.738Z,11.17
2017-09-17T22:03:00.144Z,11.10
2017-09-17T22:05:27.542Z,10.90
2017-09-17T22:07:55.050Z,10.43
2017-09-17T22:10:22.452Z,11.50
2017-09-17T22:12:49.852Z,10.80
2017-09-17T22:15:17.255Z,10.80
2017-09-17T22:17:44.657Z,10.63
2017-09-17T22:20:12.051Z,10.27
2017-09-17T22:22:39.444Z,9.63
2017-09-17T22:25:06.984Z,9.90
2017-09-17T22:27:34.382Z,10.67
2017-09-17T22:30:01.790Z,10.30
2017-09-17T22:32:29.184Z,10.73
2017-09-17T22:34:56.574Z,10.43
2017-09-17T22:37:23.976Z,11.20
2017-09-17T22:39:51.370Z,11.33
2017-09-17T22:42:18.879Z,11.60
2017-09-17T22:44:46.274Z,10.20
2017-09-17T22:47:13.669Z,11.10
2017-09-17T22:49:41.067Z,10.57
2017-09-17T22:52:08.462Z,10.90
2017-09-17T22:54:35.855Z,10.30
2017-09-17T22:57:03.273Z,10.70
2017-09-17T22:59:30.708Z,10.50
2017-09-17T23:01:58.107Z,10.60
2017-09-17T23:04:25.507Z,11.37
2017-09-17T23:06:52.906Z,11.00
2017-09-17T23:09:20.304Z,11.13
2017-09-17T23:11:47.878Z,11.80
2017-09-17T23:14:15.271Z,11.90
2017-09-17T23:16:42.667Z,11.33
2017-09-17T23:19:10.071Z,11.77
2017-09-17T23:21:37.467Z,11.53
2017-09-17T23:24:04.869Z,11.93
2017-09-17T23:26:32.263Z,11.97
2017-09-17T23:28:59.673Z,11.30
2017-09-17T23:31:27.067Z,11.80
2017-09-17T23:33:54.462Z,12.13
2017-09-17T23:36:21.862Z,11.40
2017-09-17T23:38:49.259Z,12.10
2017-09-17T23:41:16.663Z,12.00
2017-09-17T23:43:44.060Z,13.93
2017-09-17T23:46:11.611Z,11.67
2017-09-17T23:48:39.013Z,12.43
2017-09-17T23:51:06.404Z,12.07
2017-09-17T23:53:39.446Z,12.83
2017-09-17T23:56:06.847Z,11.93
2017-09-17T23:58:34.255Z,12.10
